Overview Statistics Trail Chart Weather Telemetry Raw packets
 

This is the latest recevied weather packets stored in our database for station/object WS4FSC-7. If no packets are shown the sender has not sent any weather packets the latest 10 day(s).

<< 73 74 75 76 77 78 79 >>
Time Temp. Humidity Pressure Rain* Wind** Luminosity Snow
1787855579 31.67° C 61% 1015 hPa - - 475 W/m² -
1787855212 31.11° C 62% 1015 hPa - - 528 W/m² -
1787855031 31.67° C 64% 1015 hPa - - 476 W/m² -
1787854131 32.78° C 58% 1016 hPa - - 434 W/m² -
1787853591 33.33° C 59% 1016 hPa - - 257 W/m² -
1787853051 33.33° C 58% 1016 hPa - - 970 W/m² -
1787852871 33.33° C 59% 1016 hPa - - 962 W/m² -
1787852691 33.89° C 59% 1016 hPa - - 949 W/m² -
1787852511 33.33° C 57% 1016 hPa - - 947 W/m² -
1787852332 32.78° C 63% 1016 hPa - - 948 W/m² -
1787851793 32.78° C 62% 1016 hPa - - 951 W/m² -
1787851611 32.78° C 63% 1016 hPa - - 946 W/m² -
1787851431 32.78° C 61% 1016 hPa - - 936 W/m² -
1787851251 32.78° C 63% 1016 hPa - - 928 W/m² -
1787850710 32.78° C 67% 1016 hPa - - 913 W/m² -
1787850531 32.78° C 66% 1016 hPa - - 921 W/m² -
1787850351 32.78° C 66% 1016 hPa - - 916 W/m² -
1787849991 33.33° C 66% 1016 hPa - - 908 W/m² -
1787849451 32.78° C 66% 1016 hPa - - 908 W/m² -
1787849271 33.33° C 63% 1016 hPa - - 909 W/m² -
1787848551 33.33° C 63% 1016 hPa - - 922 W/m² -
1787848371 32.78° C 66% 1016 hPa - - 921 W/m² -
1787848011 32.78° C 67% 1016 hPa - - 924 W/m² -
1787847111 32.78° C 69% 1016 hPa - - 454 W/m² -
1787846930 33.33° C 67% 1016 hPa - - 946 W/m² -

* Rain since midnight (hover to see other rain measurements)
** Current wind speed in m/s (hover to see current wind gust speed)